x

New York Harbor Entrance - 15 Nm Se Of Breezy Point , Ny (44065) Wave Buoy

6:50am - Wed 18th Jan 2017 All times are EST. -5 hours from GMT.

  • Sig Wave height 2.6ft
  • Swell Direction
  • Peak Period 5s
  • Average Period 4s
  • Wind
    16mph, 18mph gusts
  • Sea Temp 44°f
  • Air Temp 42°f
  • Sea Pressure 1011.8mb
  • New York Harbor Entrance - 15 Nm Se Of Breezy Point , Ny
  • New York Harbor Entrance - 15 Nm Se Of Breezy Point , Ny

More Historic Weather Station data

Upgrade to MSW Pro to gain access to the past 30 days of data for over 8000 Wavebouys and Weather Stations around the globe.

Join Pro

Comparision Forecast

View Surf forecast
   
Wed 01/18 6:50am 2.5ft 5s 4s 16 18 mph 1011.8mb 44f 42f
5:50am 2.5ft 5s 4s 9 11 mph 1011.2mb 44f 42f
4:50am 2.5ft 4s 4s 13 16 mph 1011.1mb 44f 42f
3:50am 2.5ft 5s 4s 11 13 mph 1011.4mb 44f 42f
2:50am 2.5ft 4s 4s 16 18 mph 1011.4mb 44f 42f
1:50am 2.5ft 5s 4s 13 18 mph 1011.8mb 44f 43f
12:50am 2.5ft 4s 4s 13 16 mph 1012mb 44f 44f
Tue 01/17 11:50pm 2.5ft 4s 4s 11 16 mph 1013mb 44f 44f
10:50pm 2.5ft 4s 4s 11 13 mph 1014.2mb 44f 44f
9:50pm 2ft 3s 4s 11 13 mph 1015.5mb 44f 44f
7:50pm 1.6ft 3s 3s 16 18 mph 1016.2mb 44f 44f
6:50pm 1.6ft 3s 3s 9 11 mph 1018.2mb 44f 43f
5:50pm 1.3ft 10s 3s 13 16 mph 1018.2mb 44f 43f
4:50pm 1.3ft 9s 4s 11 13 mph 1018.9mb 44f 44f
3:50pm 1ft 10s 5s 13 16 mph 1018.7mb 44f 42f
2:50pm 1ft 11s 6s 9
mph
1020mb 44f 43f
1:50pm 1ft 8s 6s 9 11 mph 1020.1mb 44f 42f
12:50pm 1ft 9s 5s 7 9 mph 1021.1mb 44f 42f
11:50am 1ft 8s 5s 4
mph
1022mb 44f 42f
10:50am 1.3ft 9s 5s 2 4 mph 1023.1mb 43f 42f
9:50am 1ft 10s 5s 4 7 mph 1023.8mb 43f 41f
7:50am 1.3ft 10s 4s 4
mph
1023.5mb 43f 41f
6:50am 1.3ft 9s 4s 7 9 mph 1023.6mb 43f 40f
5:50am 1.3ft 10s 4s 11
mph
1023.8mb 43f 41f
4:50am 1.3ft 10s 4s 13 16 mph 1023.9mb 43f 41f
3:50am 1.6ft 8s 4s 13
mph
1024.2mb 43f 41f
2:50am 1.6ft 10s 4s 13 16 mph 1024.9mb 43f 41f
1:50am 1.6ft 9s 4s 13 16 mph 1025.2mb 44f 41f
12:50am 1.6ft 10s 4s 16 18 mph 1025.6mb 44f 41f
Mon 01/16 11:50pm 1.6ft 10s 4s 13 16 mph 1026.1mb 44f 41f
10:50pm 1.6ft 9s 4s 13
mph
1026.5mb 44f 41f
9:50pm 2ft 4s 4s 11 13 mph 1027.2mb 44f 41f
8:50pm 2ft 4s 4s 11 13 mph 1027.6mb 44f 42f
7:50pm 2ft 3s 4s 13 16 mph 1027.8mb 44f 42f
6:50pm 2.5ft 3s 4s 16 18 mph 1027.6mb 44f 41f
5:50pm 1.6ft 10s 4s 16 18 mph 1027.9mb 44f 41f
4:50pm 1.6ft 9s 4s 13 16 mph 1028.1mb 44f 41f
3:50pm 1.3ft 9s 6s 11
mph
1028.4mb 45f 40f
2:50pm 1.3ft 9s 6s 9 11 mph 1028.7mb 45f 39f
1:50pm 1.3ft 11s 6s 2 4 mph 1029.1mb 45f 39f
12:50pm 1.3ft 11s 5s 4
mph
1029.9mb 44f 37f
11:50am 1.3ft 11s 5s 2 4 mph 1031mb 44f 36f
10:50am 1.3ft 11s 5s 2 4 mph 1031.7mb 44f 36f
9:50am 1.3ft 11s 5s 2 4 mph 1032mb 44f 36f
8:50am 1.6ft 10s 4s 2 4 mph 1031.8mb 43f 36f
7:50am 1.6ft 10s 4s 7 9 mph 1031.5mb 43f 34f
6:50am 1.6ft 10s 4s 9 11 mph 1031.1mb 43f 35f
5:50am 1.6ft 11s 4s 9 11 mph 1030.7mb 43f 35f
4:50am 1.6ft 11s 4s 9 13 mph 1030.7mb 43f 36f
3:50am 1.3ft 10s 5s 11 13 mph 1030.9mb 43f 36f
2:50am 1.3ft 11s 5s 9 11 mph 1031.1mb 44f 36f
1:50am 1.3ft 11s 5s 9 11 mph 1030.5mb 44f 36f
12:50am 1.3ft 11s 5s 9 11 mph 1030mb 44f 37f
Sun 01/15 11:50pm 1.3ft 11s 5s 9 11 mph 1029.7mb 44f 37f
10:50pm 1.3ft 11s 6s 7 11 mph 1029.7mb 44f 38f
9:50pm 1.3ft 11s 6s 7 9 mph 1029.4mb 44f 38f
8:50pm 1.3ft 11s 5s 4 9 mph 1029.4mb 44f 38f
7:50pm 1.3ft 11s 5s 4 7 mph 1028.8mb 44f 39f
6:50pm 1.3ft 11s 4s 7 9 mph 1028.4mb 44f 39f
5:50pm 1.6ft 11s 4s 11 13 mph 1028.3mb 44f 39f
4:50pm 1.6ft 11s 4s 9 13 mph 1027.4mb 44f 38f
3:50pm 1.6ft 11s 4s 11 16 mph 1027.2mb 44f 38f
2:50pm 2ft 11s 4s 11 16 mph 1027.1mb 44f 38f
1:50pm 1.6ft 11s 4s 13 18 mph 1026.9mb 44f 37f
12:50pm 2ft 11s 4s 13 18 mph 1026.9mb 44f 36f
11:50am 2ft 11s 4s 11 16 mph 1027.7mb 44f 35f
10:50am 2ft 11s 4s 13 16 mph 1028.2mb 44f 35f
9:50am 2ft 11s 4s 13 16 mph 1028.1mb 44f 35f
8:50am 2ft 11s 4s 13 16 mph 1027.9mb 44f 35f
7:50am 2.5ft 11s 4s 13 18 mph 1026.9mb 44f 35f
6:50am 2.5ft 11s 4s 16 18 mph 1025.8mb 44f 35f
5:50am 2.5ft 11s 4s 18 20 mph 1025.2mb 44f 35f
4:50am 2.5ft 11s 4s 18 20 mph 1024.9mb 44f 35f
3:50am 2.5ft 11s 4s 18 22 mph 1024.8mb 44f 35f
2:50am 2.5ft 11s 4s 16 20 mph 1025.2mb 44f 35f
1:50am 2ft 12s 6s 16 18 mph 1025.6mb 44f 35f
12:50am 2ft 11s 6s 11 13 mph 1025.8mb 43f 35f
Sat 01/14 11:50pm 2.5ft 12s 6s 4 7 mph 1026.4mb 43f 35f
10:50pm 2.5ft 11s 6s 4 7 mph 1027.5mb 43f 34f
9:50pm 2.5ft 11s 6s 4
mph
1028.3mb 43f 34f
8:50pm 2.5ft 11s 6s 2 4 mph 1028.7mb 43f 33f
7:50pm 2ft 11s 6s 2 4 mph 1029.3mb 43f 32f
6:50pm 2.5ft 11s 7s 2 4 mph 1030.5mb 43f 31f
5:50pm 2ft 10s 6s 4 7 mph 1031.1mb 44f 31f
4:50pm 2ft 11s 6s 4 7 mph 1032mb 44f 32f
3:50pm 2ft 11s 6s 7 9 mph 1032.9mb 44f 32f
2:50pm 2ft 11s 6s 4 7 mph 1033.7mb 44f 33f
1:50pm 2ft 12s 6s 4 7 mph 1034.7mb 44f 32f
12:50pm 2ft 12s 5s 7 9 mph 1034.8mb 44f 32f